This is the latest recevied weather packets stored in our database for station/object OK1TOM-6. If no packets are shown the sender has not sent any weather packets the latest 10 day(s).
| Time | Temp. | Humidity | Pressure | Rain* | Wind** | Luminosity | Snow |
|---|---|---|---|---|---|---|---|
| 1778063127 | 15.56° C | 65% | 1009.4 hPa | 0 mm | - | - | - |
| 1778062523 | 15.56° C | 68% | 1009.5 hPa | 0 mm | - | - | - |
| 1778061920 | 14.44° C | 71% | 1009.6 hPa | 0 mm | - | - | - |
| 1778061316 | 14.44° C | 74% | 1009.5 hPa | 0 mm | - | - | - |
| 1778060773 | 14.44° C | 74% | 1009.5 hPa | 0 mm | - | - | - |
| 1778060169 | 14.44° C | 74% | 1009.4 hPa | 0 mm | - | - | - |
| 1778059566 | 14.44° C | 73% | 1009.5 hPa | 0 mm | - | - | - |
| 1778058963 | 13.33° C | 76% | 1009.6 hPa | 0 mm | - | - | - |
| 1778058359 | 14.44° C | 75% | 1009.5 hPa | 0 mm | - | - | - |
| 1778057756 | 13.89° C | 79% | 1009.5 hPa | 0 mm | - | - | - |
| 1778057152 | 13.33° C | 79% | 1009.5 hPa | 0 mm | - | - | - |
| 1778056549 | 12.78° C | 81% | 1009.5 hPa | 0 mm | - | - | - |
| 1778055946 | 12.78° C | 81% | 1009.3 hPa | 0 mm | - | - | - |
| 1778055342 | 12.78° C | 81% | 1009.3 hPa | 0 mm | - | - | - |
| 1778054739 | 12.22° C | 83% | 1009.4 hPa | 0 mm | - | - | - |
| 1778054135 | 12.22° C | 82% | 1009.2 hPa | 0 mm | - | - | - |
| 1778053592 | 11.67° C | 86% | 1009.2 hPa | 0 mm | - | - | - |
| 1778052958 | 11.67° C | 85% | 1008.9 hPa | 0 mm | - | - | - |
| 1778052355 | 11.67° C | 87% | 1009 hPa | 0 mm | - | - | - |
| 1778051752 | 11.11° C | 87% | 1009 hPa | 0 mm | - | - | - |
| 1778051148 | 11.67° C | 87% | 1009 hPa | 0 mm | - | - | - |
| 1778050545 | 11.11° C | 88% | 1009 hPa | 0 mm | - | - | - |
| 1778049941 | 11.11° C | 89% | 1009.1 hPa | 0 mm | - | - | - |
| 1778049338 | 11.11° C | 90% | 1008.9 hPa | 0 mm | - | - | - |
| 1778048734 | 11.11° C | 90% | 1008.9 hPa | 0 mm | - | - | - |
* Rain latest hour (hover to see other rain measurements)
** Current wind speed in m/s (hover to see current wind gust speed)